createdAt,value
2019-04-16T00:01:04.203Z,9.83
2019-04-16T00:03:33.117Z,9.47
2019-04-16T00:06:06.359Z,10.37
2019-04-16T00:08:37.566Z,10.53
2019-04-16T00:11:13.652Z,10.27
2019-04-16T00:13:44.859Z,10.80
2019-04-16T00:16:13.794Z,10.60
2019-04-16T00:18:56.439Z,10.87
2019-04-16T00:21:30.746Z,11.23
2019-04-16T00:24:18.623Z,10.50
2019-04-16T00:26:46.890Z,10.00
2019-04-16T00:29:15.612Z,10.33
2019-04-16T00:31:45.901Z,10.77
2019-04-16T00:34:14.696Z,11.13
2019-04-16T00:36:43.412Z,11.63
2019-04-16T00:39:12.129Z,11.50
2019-04-16T00:41:40.944Z,11.20
2019-04-16T00:44:09.662Z,12.23
2019-04-16T00:46:39.494Z,11.30
2019-04-16T00:49:08.303Z,11.67
2019-04-16T00:51:37.019Z,11.03
2019-04-16T00:54:09.705Z,11.07
2019-04-16T00:56:36.420Z,11.57
2019-04-16T00:59:05.136Z,11.33
2019-04-16T01:01:33.943Z,12.03
2019-04-16T01:04:03.236Z,11.97
2019-04-16T01:06:32.356Z,11.10
2019-04-16T01:09:01.080Z,11.93
2019-04-16T01:11:29.900Z,11.23
2019-04-16T01:13:59.123Z,11.30
2019-04-16T01:16:30.305Z,12.10
2019-04-16T01:18:58.362Z,11.60
2019-04-16T01:21:27.087Z,11.43
2019-04-16T01:23:55.817Z,12.00
2019-04-16T01:26:26.874Z,11.67
2019-04-16T01:29:03.737Z,12.87
2019-04-16T01:31:32.566Z,18.60
2019-04-16T01:34:19.283Z,15.60
2019-04-16T01:37:01.923Z,12.63
2019-04-16T01:39:35.257Z,12.67
2019-04-16T01:42:04.083Z,14.50
2019-04-16T01:44:32.957Z,15.60
2019-04-16T01:47:04.332Z,14.40
2019-04-16T01:49:32.121Z,12.80
2019-04-16T01:52:00.999Z,13.47
2019-04-16T01:54:29.720Z,11.70
2019-04-16T01:56:59.924Z,11.63
2019-04-16T01:59:29.846Z,11.97
2019-04-16T02:01:58.536Z,12.37
2019-04-16T02:04:27.256Z,11.70
2019-04-16T02:06:57.797Z,12.30
2019-04-16T02:09:27.639Z,11.50
2019-04-16T02:11:56.360Z,11.10
2019-04-16T02:14:25.233Z,11.63
2019-04-16T02:16:56.120Z,11.50
2019-04-16T02:19:24.396Z,11.10
2019-04-16T02:21:53.248Z,10.60
2019-04-16T02:24:21.965Z,11.47
2019-04-16T02:26:54.591Z,11.30
2019-04-16T02:29:21.172Z,10.80
2019-04-16T02:31:51.554Z,11.47
2019-04-16T02:34:20.339Z,13.30
2019-04-16T02:36:50.352Z,11.33
2019-04-16T02:39:27.518Z,11.13
2019-04-16T02:41:49.523Z,11.80
2019-04-16T02:44:18.301Z,11.50
2019-04-16T02:46:47.019Z,12.10
2019-04-16T02:49:15.737Z,13.10
2019-04-16T02:51:46.112Z,12.17
2019-04-16T02:54:19.194Z,11.83
2019-04-16T02:56:55.585Z,11.47
2019-04-16T02:59:26.030Z,10.93
2019-04-16T03:01:56.518Z,10.97
2019-04-16T03:04:27.710Z,10.23
2019-04-16T03:06:56.543Z,10.67
2019-04-16T03:09:25.266Z,10.20
2019-04-16T03:11:54.115Z,10.97
2019-04-16T03:14:23.137Z,11.60
2019-04-16T03:17:02.465Z,10.70
2019-04-16T03:19:41.856Z,10.40
2019-04-16T03:22:10.988Z,11.47
2019-04-16T03:24:40.354Z,10.90
2019-04-16T03:27:10.033Z,12.10
2019-04-16T03:29:38.987Z,11.50
2019-04-16T03:32:12.781Z,11.70
2019-04-16T03:34:38.147Z,12.10
2019-04-16T03:37:07.963Z,12.63
2019-04-16T03:39:36.695Z,12.53
2019-04-16T03:42:05.594Z,13.10
2019-04-16T03:44:37.221Z,12.90
2019-04-16T03:47:04.784Z,15.37
2019-04-16T03:49:33.510Z,15.33
2019-04-16T03:52:04.791Z,15.67
2019-04-16T03:54:32.746Z,15.27
2019-04-16T03:57:02.057Z,14.03
2019-04-16T03:59:31.637Z,14.83
2019-04-16T04:02:00.355Z,14.17
2019-04-16T04:04:30.009Z,13.50
2019-04-16T04:07:00.072Z,13.90
2019-04-16T04:09:29.295Z,14.17
2019-04-16T04:11:58.124Z,13.73
2019-04-16T04:14:27.764Z,14.67
2019-04-16T04:16:56.488Z,14.80
2019-04-16T04:19:25.216Z,12.93
2019-04-16T04:21:54.492Z,14.60
2019-04-16T04:24:23.312Z,13.37
2019-04-16T04:26:52.112Z,14.20
2019-04-16T04:29:24.757Z,14.07
2019-04-16T04:31:51.310Z,13.87
2019-04-16T04:34:20.039Z,13.87
2019-04-16T04:36:48.908Z,13.93
2019-04-16T04:39:17.632Z,14.40
2019-04-16T04:41:46.357Z,14.50
2019-04-16T04:44:15.147Z,20.90
2019-04-16T04:46:46.077Z,24.93
2019-04-16T04:49:14.317Z,27.47
2019-04-16T04:51:43.650Z,17.07
2019-04-16T04:54:12.483Z,15.73
2019-04-16T04:56:41.212Z,14.83
2019-04-16T04:59:09.999Z,13.70
2019-04-16T05:01:41.896Z,12.23
2019-04-16T05:04:27.399Z,14.50
2019-04-16T05:06:58.057Z,15.20
2019-04-16T05:09:29.404Z,13.93
2019-04-16T05:11:57.359Z,13.13
2019-04-16T05:14:26.158Z,14.67
2019-04-16T05:16:54.875Z,13.57
2019-04-16T05:19:24.823Z,12.63
2019-04-16T05:21:53.543Z,13.30
2019-04-16T05:24:22.266Z,12.20
2019-04-16T05:26:51.066Z,12.03
2019-04-16T05:29:19.802Z,12.27
2019-04-16T05:31:48.595Z,12.23
2019-04-16T05:34:18.324Z,11.67
2019-04-16T05:36:48.154Z,11.40
2019-04-16T05:39:17.015Z,12.63
2019-04-16T05:41:45.791Z,11.77
2019-04-16T05:44:14.521Z,11.93
2019-04-16T05:46:46.675Z,11.53
2019-04-16T05:49:13.843Z,11.53
2019-04-16T05:51:42.589Z,12.80
2019-04-16T05:54:18.806Z,11.27
2019-04-16T05:56:49.105Z,12.07
2019-04-16T05:59:17.829Z,11.90
2019-04-16T06:01:57.612Z,11.73
2019-04-16T06:04:26.337Z,11.33
2019-04-16T06:06:55.122Z,10.73
2019-04-16T06:09:23.977Z,11.57
2019-04-16T06:11:52.703Z,11.30
2019-04-16T06:14:40.580Z,11.30
2019-04-16T06:17:10.946Z,12.07
2019-04-16T06:19:53.662Z,12.00
2019-04-16T06:22:39.288Z,11.77
2019-04-16T06:25:26.087Z,10.83
2019-04-16T06:27:59.317Z,11.37
2019-04-16T06:30:32.993Z,11.83
2019-04-16T06:33:04.707Z,10.73
2019-04-16T06:35:46.960Z,11.40
2019-04-16T06:38:26.177Z,11.50
2019-04-16T06:41:08.731Z,12.47
2019-04-16T06:43:45.040Z,11.73
2019-04-16T06:46:21.590Z,11.10
2019-04-16T06:48:51.995Z,10.80
2019-04-16T06:51:34.914Z,11.50
2019-04-16T06:54:25.566Z,10.47
2019-04-16T06:57:12.872Z,11.50
2019-04-16T06:59:43.383Z,11.07
2019-04-16T07:02:13.663Z,15.97
2019-04-16T07:04:47.164Z,12.73
2019-04-16T07:07:40.028Z,11.63
2019-04-16T07:10:04.792Z,12.23
2019-04-16T07:12:38.155Z,15.57
2019-04-16T07:15:05.752Z,9.97
2019-04-16T07:17:34.581Z,11.60
2019-04-16T07:20:05.019Z,9.27
2019-04-16T07:22:33.938Z,9.63
2019-04-16T07:25:04.463Z,10.43
2019-04-16T07:27:38.280Z,12.37
2019-04-16T07:30:09.051Z,14.40
2019-04-16T07:32:39.589Z,9.43
2019-04-16T07:35:27.233Z,11.67
2019-04-16T07:37:57.769Z,10.87
2019-04-16T07:40:33.880Z,12.67
2019-04-16T07:43:04.179Z,10.70
2019-04-16T07:45:43.534Z,13.67
2019-04-16T07:48:29.126Z,11.10
2019-04-16T07:51:11.809Z,8.47
2019-04-16T07:53:47.150Z,8.83
2019-04-16T07:56:26.517Z,9.97
2019-04-16T07:59:00.058Z,10.57
2019-04-16T08:01:25.682Z,8.87
2019-04-16T08:03:57.470Z,9.63
2019-04-16T08:06:24.985Z,9.67
2019-04-16T08:08:53.927Z,9.70
2019-04-16T08:11:24.291Z,18.97
2019-04-16T08:13:53.023Z,10.63
2019-04-16T08:16:21.743Z,10.03
2019-04-16T08:18:51.112Z,10.53
2019-04-16T08:21:22.596Z,8.60
2019-04-16T08:23:53.057Z,9.50
2019-04-16T08:26:22.027Z,10.43
2019-04-16T08:28:50.756Z,13.63
2019-04-16T08:31:21.052Z,11.00
2019-04-16T08:33:49.821Z,10.07
2019-04-16T08:36:18.561Z,9.13
2019-04-16T08:38:47.284Z,9.00
2019-04-16T08:41:19.963Z,10.37
2019-04-16T08:43:46.646Z,9.03
2019-04-16T08:46:15.372Z,11.10
2019-04-16T08:48:48.978Z,10.13
2019-04-16T08:51:14.619Z,9.47
2019-04-16T08:53:43.708Z,10.00
2019-04-16T08:56:13.865Z,9.13
2019-04-16T08:58:42.584Z,9.50
2019-04-16T09:01:15.413Z,9.97
2019-04-16T09:03:44.213Z,9.30
2019-04-16T09:06:14.153Z,9.30
2019-04-16T09:08:44.611Z,9.67
2019-04-16T09:11:23.201Z,9.90
2019-04-16T09:13:48.146Z,9.97
2019-04-16T09:16:15.894Z,10.00
2019-04-16T09:18:50.182Z,9.83
2019-04-16T09:21:18.907Z,10.57
2019-04-16T09:24:08.844Z,9.80
2019-04-16T09:26:43.677Z,9.67
2019-04-16T09:29:27.777Z,10.87
2019-04-16T09:32:03.839Z,9.93
2019-04-16T09:34:35.683Z,11.57
2019-04-16T09:37:12.103Z,10.43
2019-04-16T09:39:45.300Z,11.20
2019-04-16T09:42:14.029Z,11.23
2019-04-16T09:44:42.749Z,11.60
2019-04-16T09:47:14.077Z,10.90
2019-04-16T09:49:42.810Z,12.10
2019-04-16T09:52:11.566Z,11.50
2019-04-16T09:54:41.504Z,11.43
2019-04-16T09:57:11.574Z,10.13
2019-04-16T09:59:44.710Z,10.97
2019-04-16T10:02:14.045Z,11.37
2019-04-16T10:04:42.776Z,10.90
2019-04-16T10:07:12.980Z,10.10
2019-04-16T10:09:41.840Z,10.47
2019-04-16T10:12:10.561Z,10.30
2019-04-16T10:14:39.322Z,11.07
2019-04-16T10:17:08.379Z,10.03
2019-04-16T10:19:37.090Z,11.77
2019-04-16T10:22:05.810Z,10.87
2019-04-16T10:24:36.416Z,10.63
2019-04-16T10:27:05.156Z,10.63
2019-04-16T10:29:33.897Z,10.23
2019-04-16T10:32:02.673Z,10.90
2019-04-16T10:34:31.393Z,9.17
2019-04-16T10:37:00.118Z,8.80
2019-04-16T10:39:36.746Z,9.80
2019-04-16T10:42:16.155Z,8.07
2019-04-16T10:44:52.858Z,9.17
2019-04-16T10:47:39.856Z,9.00
2019-04-16T10:50:13.513Z,9.40
2019-04-16T10:52:54.566Z,9.17
2019-04-16T10:55:33.782Z,9.97
2019-04-16T10:58:20.675Z,9.40
2019-04-16T11:00:51.111Z,10.07
2019-04-16T11:03:21.432Z,8.80
2019-04-16T11:06:08.503Z,9.07
2019-04-16T11:08:37.224Z,8.07
2019-04-16T11:11:06.003Z,7.53
2019-04-16T11:13:36.411Z,7.57
2019-04-16T11:16:07.209Z,8.10
2019-04-16T11:18:36.087Z,8.53
2019-04-16T11:21:05.394Z,9.77
2019-04-16T11:23:34.105Z,8.17
2019-04-16T11:26:02.832Z,7.47
2019-04-16T11:28:31.659Z,7.30
2019-04-16T11:31:01.958Z,7.20
2019-04-16T11:33:30.678Z,7.70
2019-04-16T11:35:59.445Z,7.20
2019-04-16T11:38:28.154Z,7.23
2019-04-16T11:40:56.902Z,7.37
2019-04-16T11:43:27.247Z,6.73
2019-04-16T11:45:55.961Z,8.27
2019-04-16T11:48:24.677Z,8.17
2019-04-16T11:50:53.524Z,7.57
2019-04-16T11:53:22.268Z,9.10
2019-04-16T11:55:51.028Z,7.47
2019-04-16T11:58:24.169Z,8.47
2019-04-16T12:00:54.604Z,8.40
2019-04-16T12:03:24.943Z,8.87
2019-04-16T12:06:27.440Z,7.53
2019-04-16T12:09:02.883Z,8.27
2019-04-16T12:11:36.234Z,7.63
2019-04-16T12:14:29.635Z,7.23
2019-04-16T12:16:47.773Z,7.53
2019-04-16T12:19:27.343Z,6.67
2019-04-16T12:22:04.110Z,5.53
2019-04-16T12:24:34.425Z,5.47
2019-04-16T12:27:21.021Z,5.50
2019-04-16T12:29:54.313Z,6.30
2019-04-16T12:32:30.650Z,6.07
2019-04-16T12:35:16.830Z,6.10
2019-04-16T12:38:04.077Z,5.50
2019-04-16T12:40:37.358Z,5.93
2019-04-16T12:43:07.666Z,6.30
2019-04-16T12:45:47.115Z,5.40
2019-04-16T12:48:17.483Z,5.73
2019-04-16T12:50:47.756Z,5.50
2019-04-16T12:53:18.108Z,5.50
2019-04-16T12:56:07.404Z,4.57
2019-04-16T12:58:50.409Z,4.73
2019-04-16T13:01:19.668Z,4.53
2019-04-16T13:03:55.133Z,4.07
2019-04-16T13:06:34.427Z,4.23
2019-04-16T13:09:21.322Z,5.30
2019-04-16T13:11:51.619Z,4.33
2019-04-16T13:14:21.976Z,5.13
2019-04-16T13:17:08.949Z,5.90
2019-04-16T13:19:55.624Z,4.83
2019-04-16T13:22:38.337Z,4.97
2019-04-16T13:25:18.729Z,4.97
2019-04-16T13:27:50.871Z,5.07
2019-04-16T13:30:18.652Z,5.30
2019-04-16T13:32:47.386Z,5.10
2019-04-16T13:35:16.172Z,5.10
2019-04-16T13:37:44.938Z,4.40
2019-04-16T13:40:15.482Z,5.50
2019-04-16T13:42:44.332Z,4.83
2019-04-16T13:45:27.127Z,5.40
2019-04-16T13:47:56.011Z,5.03
2019-04-16T13:50:29.452Z,5.23
2019-04-16T13:52:59.802Z,5.67
2019-04-16T13:55:38.238Z,4.50
2019-04-16T13:58:14.022Z,5.20
2019-04-16T14:00:50.337Z,5.03
2019-04-16T14:03:23.742Z,4.00
2019-04-16T14:05:52.497Z,4.50
2019-04-16T14:08:21.262Z,5.10
2019-04-16T14:10:50.998Z,4.67
2019-04-16T14:13:19.721Z,4.97
2019-04-16T14:15:48.443Z,5.10
2019-04-16T14:18:17.243Z,4.60
2019-04-16T14:20:46.131Z,4.37
2019-04-16T14:23:14.851Z,4.50
2019-04-16T14:25:43.696Z,7.30
2019-04-16T14:28:12.478Z,5.10
2019-04-16T14:30:43.560Z,6.20
2019-04-16T14:33:13.931Z,5.57
2019-04-16T14:35:42.955Z,5.97
2019-04-16T14:38:13.239Z,4.93
2019-04-16T14:40:42.476Z,5.60
2019-04-16T14:43:13.472Z,6.10
2019-04-16T14:45:57.622Z,4.40
2019-04-16T14:48:14.280Z,6.13
2019-04-16T14:50:43.001Z,7.60
2019-04-16T14:53:13.583Z,5.67
2019-04-16T14:55:59.116Z,8.07
2019-04-16T14:58:25.122Z,6.57
2019-04-16T15:01:11.638Z,5.63
2019-04-16T15:03:50.763Z,4.97
2019-04-16T15:06:27.141Z,5.50
2019-04-16T15:08:57.419Z,5.70
2019-04-16T15:11:27.718Z,6.20
2019-04-16T15:14:14.225Z,6.43
2019-04-16T15:16:44.514Z,6.53
2019-04-16T15:19:24.218Z,9.00
2019-04-16T15:22:14.070Z,7.77
2019-04-16T15:24:46.272Z,11.27
2019-04-16T15:27:19.310Z,10.33
2019-04-16T15:30:04.749Z,9.90
2019-04-16T15:32:38.023Z,9.60
2019-04-16T15:35:08.427Z,11.73
2019-04-16T15:37:45.286Z,9.13
2019-04-16T15:40:16.117Z,8.93
2019-04-16T15:43:02.954Z,8.70
2019-04-16T15:45:33.254Z,10.27
2019-04-16T15:48:06.378Z,13.07
2019-04-16T15:50:45.829Z,10.67
2019-04-16T15:53:16.197Z,8.87
2019-04-16T15:56:02.711Z,8.77
2019-04-16T15:58:33.050Z,9.43
2019-04-16T16:01:03.457Z,7.07
2019-04-16T16:03:50.943Z,9.93
2019-04-16T16:06:21.245Z,7.93
2019-04-16T16:08:51.548Z,9.07
2019-04-16T16:11:37.179Z,8.00
2019-04-16T16:14:06.006Z,8.03
2019-04-16T16:16:42.049Z,7.77
2019-04-16T16:19:05.248Z,8.03
2019-04-16T16:21:33.971Z,7.87
2019-04-16T16:24:06.674Z,6.90
2019-04-16T16:26:33.311Z,7.40
2019-04-16T16:29:02.040Z,8.27
2019-04-16T16:31:35.073Z,8.40
2019-04-16T16:34:02.086Z,10.17
2019-04-16T16:36:30.808Z,5.20
2019-04-16T16:38:59.531Z,6.73
2019-04-16T16:41:28.293Z,5.40
2019-04-16T16:43:57.024Z,6.13
2019-04-16T16:46:55.933Z,10.87
2019-04-16T16:49:12.959Z,9.80
2019-04-16T16:51:43.252Z,5.53
2019-04-16T16:54:22.509Z,5.83
2019-04-16T16:57:08.190Z,5.87
2019-04-16T16:59:40.542Z,5.13
2019-04-16T17:02:28.893Z,5.20
2019-04-16T17:04:59.244Z,6.43
2019-04-16T17:07:27.969Z,5.13
2019-04-16T17:09:56.680Z,4.70
2019-04-16T17:12:25.558Z,6.63
2019-04-16T17:14:54.290Z,7.77
2019-04-16T17:17:23.020Z,9.60
2019-04-16T17:19:51.804Z,6.43
2019-04-16T17:22:20.528Z,6.63
2019-04-16T17:24:49.248Z,7.07
2019-04-16T17:27:18.349Z,8.47
2019-04-16T17:29:49.998Z,10.70
2019-04-16T17:32:17.631Z,7.03
2019-04-16T17:34:46.421Z,6.57
2019-04-16T17:37:15.138Z,5.70
2019-04-16T17:39:45.422Z,6.03
2019-04-16T17:42:28.020Z,5.23
2019-04-16T17:45:13.594Z,6.00
2019-04-16T17:48:00.450Z,6.00
2019-04-16T17:50:45.792Z,6.70
2019-04-16T17:53:16.174Z,7.80
2019-04-16T17:56:02.983Z,6.90
2019-04-16T17:58:40.347Z,6.90
2019-04-16T18:01:16.572Z,6.53
2019-04-16T18:03:50.043Z,5.77
2019-04-16T18:06:29.479Z,5.83
2019-04-16T18:08:59.847Z,5.73
2019-04-16T18:11:41.008Z,5.53
2019-04-16T18:14:14.948Z,6.20
2019-04-16T18:16:45.291Z,5.97
2019-04-16T18:19:24.883Z,6.40
2019-04-16T18:21:57.729Z,6.73
2019-04-16T18:24:28.720Z,7.30
2019-04-16T18:27:14.399Z,8.40
2019-04-16T18:30:05.157Z,10.47
2019-04-16T18:32:39.226Z,8.17
2019-04-16T18:35:18.300Z,7.47
2019-04-16T18:37:51.322Z,8.23
2019-04-16T18:40:21.613Z,9.40
2019-04-16T18:42:51.947Z,9.80
2019-04-16T18:45:38.621Z,12.53
2019-04-16T18:48:17.839Z,48.97
2019-04-16T18:50:46.674Z,41.60
2019-04-16T18:53:15.399Z,29.20
2019-04-16T18:55:44.582Z,11.17
2019-04-16T18:58:13.408Z,10.83
2019-04-16T19:00:46.491Z,10.40
2019-04-16T19:03:15.901Z,10.20
2019-04-16T19:05:44.760Z,11.93
2019-04-16T19:08:13.493Z,31.77
2019-04-16T19:10:42.549Z,31.57
2019-04-16T19:13:11.760Z,24.13
2019-04-16T19:15:40.573Z,41.63
2019-04-16T19:18:19.196Z,22.07
2019-04-16T19:20:39.787Z,17.77
2019-04-16T19:23:08.513Z,19.60
2019-04-16T19:25:37.418Z,27.13
2019-04-16T19:28:06.964Z,53.77
2019-04-16T19:30:35.760Z,108.30
2019-04-16T19:33:04.764Z,54.03
2019-04-16T19:35:33.504Z,39.07
2019-04-16T19:38:06.121Z,32.30
2019-04-16T19:40:33.860Z,43.00
2019-04-16T19:43:03.516Z,84.07
2019-04-16T19:45:32.301Z,56.93
2019-04-16T19:48:02.133Z,33.50
2019-04-16T19:50:36.168Z,26.50
2019-04-16T19:53:01.608Z,17.47
2019-04-16T19:55:30.380Z,16.80
2019-04-16T19:57:59.374Z,17.77
2019-04-16T20:00:28.118Z,16.87
2019-04-16T20:02:57.179Z,15.27
2019-04-16T20:05:28.782Z,13.00
2019-04-16T20:07:56.327Z,10.97
2019-04-16T20:10:25.107Z,12.03
2019-04-16T20:12:57.430Z,14.13
2019-04-16T20:15:24.277Z,15.30
2019-04-16T20:17:53.228Z,15.60
2019-04-16T20:20:21.969Z,13.73
2019-04-16T20:22:50.695Z,14.00
2019-04-16T20:25:19.769Z,14.00
2019-04-16T20:27:48.572Z,14.07
2019-04-16T20:30:17.297Z,15.47
2019-04-16T20:32:46.149Z,13.77
2019-04-16T20:35:17.870Z,12.73
2019-04-16T20:37:45.322Z,17.07
2019-04-16T20:40:14.581Z,15.10
2019-04-16T20:42:44.646Z,13.80
2019-04-16T20:45:13.374Z,12.63
2019-04-16T20:47:42.140Z,15.13
2019-04-16T20:50:11.366Z,19.40
2019-04-16T20:52:40.099Z,17.77
2019-04-16T20:55:15.644Z,16.70
2019-04-16T20:57:41.681Z,18.97
2019-04-16T21:00:11.814Z,18.50
2019-04-16T21:02:40.683Z,17.83
2019-04-16T21:05:21.645Z,19.50
2019-04-16T21:07:39.857Z,19.13
2019-04-16T21:10:08.822Z,15.70
2019-04-16T21:12:37.545Z,14.00
2019-04-16T21:15:06.992Z,14.97
2019-04-16T21:17:39.125Z,13.33
2019-04-16T21:20:07.076Z,15.53
2019-04-16T21:22:35.809Z,19.10
2019-04-16T21:25:05.091Z,19.93
2019-04-16T21:27:35.393Z,18.17
2019-04-16T21:30:11.195Z,24.60
2019-04-16T21:32:48.689Z,20.13
2019-04-16T21:35:24.132Z,21.00
2019-04-16T21:38:00.355Z,19.13
2019-04-16T21:40:29.094Z,18.10
2019-04-16T21:42:57.820Z,17.13
2019-04-16T21:45:26.647Z,15.40
2019-04-16T21:47:56.400Z,16.00
2019-04-16T21:50:25.164Z,15.83
2019-04-16T21:52:55.681Z,17.37
2019-04-16T21:55:24.375Z,17.23
2019-04-16T21:57:53.100Z,16.67
2019-04-16T22:00:27.884Z,19.63
2019-04-16T22:02:56.738Z,19.73
2019-04-16T22:05:25.455Z,17.53
2019-04-16T22:07:57.118Z,17.53
2019-04-16T22:10:24.856Z,16.80
2019-04-16T22:12:53.587Z,15.70
2019-04-16T22:15:25.114Z,14.37
2019-04-16T22:17:52.787Z,12.97
2019-04-16T22:20:21.508Z,11.40
2019-04-16T22:22:50.303Z,10.80
2019-04-16T22:25:19.122Z,9.23
2019-04-16T22:27:47.818Z,8.37
2019-04-16T22:30:19.411Z,10.03
2019-04-16T22:32:47.011Z,8.53
2019-04-16T22:35:15.725Z,8.73
2019-04-16T22:37:44.517Z,19.40
2019-04-16T22:40:31.296Z,21.60
2019-04-16T22:43:19.765Z,31.63
2019-04-16T22:45:52.203Z,28.67
2019-04-16T22:48:20.517Z,29.97
2019-04-16T22:50:49.305Z,23.10
2019-04-16T22:53:18.073Z,16.10
2019-04-16T22:55:46.747Z,12.70
2019-04-16T22:58:25.328Z,12.53
2019-04-16T23:00:55.738Z,11.93
2019-04-16T23:03:24.468Z,10.47
2019-04-16T23:05:53.329Z,12.10
2019-04-16T23:08:22.049Z,10.73
2019-04-16T23:10:52.069Z,12.43
2019-04-16T23:13:21.040Z,15.60
2019-04-16T23:15:51.798Z,10.90
2019-04-16T23:18:20.527Z,12.63
2019-04-16T23:20:49.320Z,12.10
2019-04-16T23:23:19.309Z,11.87
2019-04-16T23:25:48.148Z,11.93
2019-04-16T23:28:16.938Z,11.13
2019-04-16T23:30:47.934Z,10.53
2019-04-16T23:33:16.095Z,10.73
2019-04-16T23:35:44.864Z,11.90
2019-04-16T23:38:13.587Z,13.03
2019-04-16T23:40:43.906Z,13.63
2019-04-16T23:43:14.702Z,13.40
2019-04-16T23:46:01.686Z,14.23
2019-04-16T23:48:50.634Z,14.77
2019-04-16T23:51:28.711Z,14.53
2019-04-16T23:53:58.815Z,17.13
2019-04-16T23:56:35.000Z,15.73
2019-04-16T23:59:05.648Z,16.33
